createdAt,value
2023-05-18T00:01:04.310Z,102177.13
2023-05-18T00:03:55.143Z,102180.66
2023-05-18T00:06:41.778Z,102184.16
2023-05-18T00:09:30.821Z,102188.59
2023-05-18T00:12:17.678Z,102184.16
2023-05-18T00:15:07.552Z,102187.69
2023-05-18T00:17:54.493Z,102194.72
2023-05-18T00:20:41.512Z,102201.78
2023-05-18T00:23:29.844Z,102193.84
2023-05-18T00:26:18.090Z,102191.19
2023-05-18T00:29:07.492Z,102165.69
2023-05-18T00:31:56.820Z,102186.81
2023-05-18T00:34:44.270Z,102183.31
2023-05-18T00:37:33.126Z,102191.22
2023-05-18T00:40:22.549Z,102193.81
2023-05-18T00:43:14.347Z,102192.94
2023-05-18T00:46:03.150Z,102196.44
2023-05-18T00:48:57.233Z,102201.72
2023-05-18T00:51:45.072Z,102203.47
2023-05-18T00:54:33.442Z,102189.34
2023-05-18T00:57:20.376Z,102206.94
2023-05-18T01:00:10.971Z,102205.16
2023-05-18T01:03:00.660Z,102159.38
2023-05-18T01:05:50.385Z,102203.38
2023-05-18T01:08:38.411Z,102202.53
2023-05-18T01:11:31.591Z,102210.44
2023-05-18T01:14:27.506Z,102213.00
2023-05-18T01:17:33.728Z,102218.25
2023-05-18T01:20:38.092Z,102226.06
2023-05-18T01:23:55.701Z,102220.78
2023-05-18T01:26:45.450Z,102223.47
2023-05-18T01:29:32.492Z,102190.84
2023-05-18T01:32:20.437Z,102232.22
2023-05-18T01:35:07.801Z,102230.53
2023-05-18T01:37:57.072Z,102227.03
2023-05-18T01:40:53.696Z,102233.22
2023-05-18T01:43:51.156Z,102236.72
2023-05-18T01:46:44.711Z,102236.59
2023-05-18T01:49:36.987Z,102233.03
2023-05-18T01:52:33.817Z,102233.06
2023-05-18T01:55:23.104Z,102230.34
2023-05-18T01:58:12.409Z,102232.13
2023-05-18T02:01:01.272Z,102235.59
2023-05-18T02:03:47.933Z,102232.06
2023-05-18T02:06:34.897Z,102240.00
2023-05-18T02:09:22.192Z,102236.47
2023-05-18T02:12:10.705Z,102232.91
2023-05-18T02:14:58.531Z,102233.78
2023-05-18T02:17:47.569Z,102232.81
2023-05-18T02:20:34.600Z,102229.22
2023-05-18T02:23:21.383Z,102230.06
2023-05-18T02:26:08.341Z,102231.94
2023-05-18T02:28:55.286Z,102232.72
2023-05-18T02:31:42.223Z,102238.06
2023-05-18T02:34:33.057Z,102242.34
2023-05-18T02:37:20.241Z,102243.19
2023-05-18T02:40:10.841Z,102238.75
2023-05-18T02:42:57.487Z,102246.69
2023-05-18T02:45:45.415Z,102242.28
2023-05-18T02:48:32.346Z,102239.63
2023-05-18T02:51:21.773Z,102248.41
2023-05-18T02:54:08.809Z,102203.44
2023-05-18T02:56:58.935Z,102249.28
2023-05-18T03:00:10.310Z,102241.34
2023-05-18T03:02:57.898Z,102248.34
2023-05-18T03:05:44.761Z,102245.03
2023-05-18T03:08:37.473Z,102253.91
2023-05-18T03:11:24.958Z,102259.91
2023-05-18T03:14:11.772Z,102260.81
2023-05-18T03:16:58.591Z,102266.13
2023-05-18T03:19:45.555Z,102260.84
2023-05-18T03:22:32.881Z,102270.56
2023-05-18T03:25:22.668Z,102261.78
2023-05-18T03:28:09.698Z,102268.81
2023-05-18T03:30:56.667Z,102260.91
2023-05-18T03:33:43.436Z,102258.34
2023-05-18T03:36:30.294Z,102261.06
2023-05-18T03:39:17.276Z,102261.16
2023-05-18T03:42:05.571Z,102258.53
2023-05-18T03:44:52.156Z,102270.88
2023-05-18T03:47:39.806Z,102269.94
2023-05-18T03:50:26.650Z,102272.59
2023-05-18T03:53:14.007Z,102273.56
2023-05-18T03:56:00.829Z,102279.75
2023-05-18T03:58:49.208Z,102275.31
2023-05-18T04:01:36.338Z,102285.00
2023-05-18T04:04:23.998Z,102286.81
2023-05-18T04:07:10.961Z,102292.13
2023-05-18T04:09:58.165Z,102297.47
2023-05-18T04:12:45.302Z,102294.00
2023-05-18T04:15:33.844Z,102291.41
2023-05-18T04:18:21.186Z,102293.22
2023-05-18T04:21:08.117Z,102297.66
2023-05-18T04:23:54.941Z,102295.16
2023-05-18T04:26:42.543Z,102299.53
2023-05-18T04:29:30.056Z,102296.88
2023-05-18T04:32:19.125Z,102298.66
2023-05-18T04:35:06.678Z,102293.38
2023-05-18T04:37:54.733Z,102294.28
2023-05-18T04:40:42.917Z,102305.69
2023-05-18T04:43:36.710Z,102303.94
2023-05-18T04:46:23.978Z,102309.22
2023-05-18T04:49:15.112Z,102311.84
2023-05-18T04:52:01.784Z,102317.16
2023-05-18T04:54:48.845Z,102317.13
2023-05-18T04:57:35.710Z,102311.81
2023-05-18T05:00:24.879Z,102299.19
2023-05-18T05:03:18.860Z,102307.75
2023-05-18T05:06:10.181Z,102308.16
2023-05-18T05:08:59.589Z,102306.88
2023-05-18T05:11:46.747Z,102314.56
2023-05-18T05:14:33.508Z,102308.91
2023-05-18T05:17:20.330Z,102310.41
2023-05-18T05:20:08.125Z,102307.53
2023-05-18T05:22:59.295Z,102305.41
2023-05-18T05:25:47.176Z,102314.50
2023-05-18T05:28:34.270Z,102312.38
2023-05-18T05:31:23.319Z,102312.78
2023-05-18T05:34:28.586Z,102316.28
2023-05-18T05:37:17.986Z,102321.72
2023-05-18T05:40:13.227Z,102319.59
2023-05-18T05:43:03.693Z,102320.41
2023-05-18T05:45:50.947Z,102323.69
2023-05-18T05:48:40.788Z,102324.75
2023-05-18T05:51:29.919Z,102318.75
2023-05-18T05:54:37.089Z,102340.69
2023-05-18T05:57:28.123Z,102335.81
2023-05-18T06:00:15.337Z,102308.75
2023-05-18T06:03:10.604Z,102331.25
2023-05-18T06:06:04.917Z,102335.66
2023-05-18T06:08:52.037Z,102331.00
2023-05-18T06:11:41.830Z,102329.66
2023-05-18T06:14:32.750Z,102329.59
2023-05-18T06:17:19.994Z,102326.25
2023-05-18T06:20:10.312Z,102329.34
2023-05-18T06:23:12.197Z,102335.88
2023-05-18T06:26:10.026Z,102340.91
2023-05-18T06:29:11.531Z,102351.66
2023-05-18T06:32:29.793Z,102352.63
2023-05-18T06:35:20.013Z,102348.03
2023-05-18T06:38:09.998Z,102352.47
2023-05-18T06:40:59.214Z,102278.69
2023-05-18T06:43:46.056Z,102351.75
2023-05-18T06:46:44.859Z,102342.03
2023-05-18T06:49:40.153Z,102346.13
2023-05-18T06:52:27.313Z,102344.59
2023-05-18T06:55:21.816Z,102345.66
2023-05-18T06:58:13.292Z,102353.31
2023-05-18T07:01:06.425Z,102354.22
2023-05-18T07:03:59.055Z,102355.06
2023-05-18T07:06:53.429Z,102363.44
2023-05-18T07:09:45.206Z,102350.41
2023-05-18T07:12:39.636Z,102353.19
2023-05-18T07:15:40.004Z,102349.31
2023-05-18T07:18:46.998Z,102352.16
2023-05-18T07:21:36.253Z,102351.72
2023-05-18T07:24:27.131Z,102348.00
2023-05-18T07:27:13.975Z,102343.13
2023-05-18T07:30:04.110Z,102342.44
2023-05-18T07:32:58.214Z,102344.72
2023-05-18T07:35:48.907Z,102337.19
2023-05-18T07:38:35.634Z,102338.28
2023-05-18T07:41:39.039Z,102343.75
2023-05-18T07:44:28.886Z,102342.59
2023-05-18T07:47:17.946Z,102340.00
2023-05-18T07:50:06.147Z,102338.91
2023-05-18T07:52:54.464Z,102341.59
2023-05-18T07:55:42.488Z,102347.72
2023-05-18T07:58:37.866Z,102344.50
2023-05-18T08:01:30.010Z,102338.72
2023-05-18T08:04:18.688Z,102344.19
2023-05-18T08:07:09.781Z,102348.31
2023-05-18T08:09:58.132Z,102344.63
2023-05-18T08:12:50.075Z,102359.69
2023-05-18T08:15:42.313Z,102354.69
2023-05-18T08:18:30.478Z,102354.53
2023-05-18T08:21:19.064Z,102362.75
2023-05-18T08:24:13.655Z,102363.75
2023-05-18T08:27:02.471Z,102360.56
2023-05-18T08:29:53.966Z,102355.97
2023-05-18T08:32:46.058Z,102360.34
2023-05-18T08:35:33.879Z,102356.13
2023-05-18T08:38:21.458Z,102310.25
2023-05-18T08:41:28.817Z,102361.88
2023-05-18T08:44:24.348Z,102369.69
2023-05-18T08:47:11.886Z,102362.44
2023-05-18T08:50:13.653Z,102344.19
2023-05-18T08:53:11.747Z,102360.59
2023-05-18T08:56:03.736Z,102359.03
2023-05-18T08:59:03.792Z,102352.81
2023-05-18T09:01:52.731Z,102355.91
2023-05-18T09:04:40.147Z,102349.88
2023-05-18T09:07:30.618Z,102358.75
2023-05-18T09:10:17.374Z,102340.72
2023-05-18T09:13:06.106Z,102348.75
2023-05-18T09:15:52.734Z,102347.19
2023-05-18T09:18:39.850Z,102343.84
2023-05-18T09:21:26.457Z,102344.88
2023-05-18T09:24:21.358Z,102337.03
2023-05-18T09:27:11.959Z,102337.78
2023-05-18T09:30:00.142Z,102333.91
2023-05-18T09:32:48.744Z,102336.50
2023-05-18T09:35:40.359Z,102327.84
2023-05-18T09:38:30.334Z,102321.03
2023-05-18T09:41:19.517Z,102332.31
2023-05-18T09:44:14.600Z,102334.69
2023-05-18T09:47:01.244Z,102327.53
2023-05-18T09:49:50.334Z,102327.28
2023-05-18T09:52:42.173Z,102326.53
2023-05-18T09:55:31.425Z,102322.84
2023-05-18T09:58:22.129Z,102319.88
2023-05-18T10:01:08.900Z,102315.53
2023-05-18T10:04:13.317Z,102309.59
2023-05-18T10:07:06.014Z,102321.81
2023-05-18T10:10:09.150Z,102324.44
2023-05-18T10:12:58.649Z,102318.19
2023-05-18T10:16:01.744Z,102315.94
2023-05-18T10:18:53.888Z,102315.94
2023-05-18T10:21:44.500Z,102308.38
2023-05-18T10:24:36.418Z,102307.06
2023-05-18T10:27:29.221Z,102297.22
2023-05-18T10:30:17.706Z,102298.97
2023-05-18T10:33:14.066Z,102297.84
2023-05-18T10:36:05.385Z,102300.84
2023-05-18T10:38:53.149Z,102294.47
2023-05-18T10:41:46.434Z,102293.59
2023-05-18T10:44:33.571Z,102284.88
2023-05-18T10:47:24.176Z,102287.28
2023-05-18T10:50:12.694Z,102283.38
2023-05-18T10:53:00.851Z,102292.38
2023-05-18T10:55:53.421Z,102248.06
2023-05-18T10:58:41.388Z,102283.13
2023-05-18T11:01:28.329Z,102284.03
2023-05-18T11:04:15.750Z,102282.03
2023-05-18T11:07:09.161Z,102270.34
2023-05-18T11:09:55.818Z,102270.88
2023-05-18T11:12:45.523Z,102227.09
2023-05-18T11:16:21.794Z,102275.22
2023-05-18T11:19:12.443Z,102272.91
2023-05-18T11:21:59.287Z,102283.56
2023-05-18T11:24:52.056Z,102285.34
2023-05-18T11:27:39.424Z,102284.13
2023-05-18T11:30:30.304Z,102283.88
2023-05-18T11:33:25.857Z,102284.59
2023-05-18T11:36:16.971Z,102276.91
2023-05-18T11:39:07.957Z,102284.25
2023-05-18T11:42:02.578Z,102275.34
2023-05-18T11:44:54.054Z,102265.38
2023-05-18T11:47:41.943Z,102266.75
2023-05-18T11:50:33.384Z,102264.00
2023-05-18T11:53:25.148Z,102266.31
2023-05-18T11:56:14.173Z,102263.25
2023-05-18T11:59:17.515Z,102264.63
2023-05-18T12:02:05.633Z,102260.25
2023-05-18T12:04:54.581Z,102263.22
2023-05-18T12:07:42.519Z,102261.00
2023-05-18T12:10:29.970Z,102268.94
2023-05-18T12:13:20.183Z,102265.50
2023-05-18T12:16:12.205Z,102264.22
2023-05-18T12:19:02.385Z,102260.44
2023-05-18T12:21:49.336Z,102255.13
2023-05-18T12:24:38.407Z,102258.72
2023-05-18T12:27:27.445Z,102258.97
2023-05-18T12:30:18.669Z,102258.56
2023-05-18T12:33:09.414Z,102255.75
2023-05-18T12:35:56.574Z,102257.91
2023-05-18T12:38:43.630Z,102257.75
2023-05-18T12:41:30.054Z,102260.22
2023-05-18T12:44:17.122Z,102254.94
2023-05-18T12:47:05.517Z,102251.94
2023-05-18T12:49:53.606Z,102255.56
2023-05-18T12:52:41.303Z,102249.94
2023-05-18T12:55:28.510Z,102255.13
2023-05-18T12:58:19.202Z,102251.16
2023-05-18T13:01:11.209Z,102239.00
2023-05-18T13:03:59.438Z,102237.25
2023-05-18T13:06:50.731Z,102242.41
2023-05-18T13:09:39.933Z,102228.59
2023-05-18T13:12:44.319Z,102239.03
2023-05-18T13:15:39.432Z,102228.25
2023-05-18T13:18:27.340Z,102235.22
2023-05-18T13:21:41.754Z,102236.03
2023-05-18T13:24:32.455Z,102240.13
2023-05-18T13:27:23.124Z,102224.31
2023-05-18T13:30:17.742Z,102230.22
2023-05-18T13:33:08.397Z,102214.38
2023-05-18T13:35:56.041Z,102230.69
2023-05-18T13:38:47.167Z,102222.69
2023-05-18T13:41:42.281Z,102218.75
2023-05-18T13:44:28.864Z,102220.03
2023-05-18T13:47:18.003Z,102216.06
2023-05-18T13:50:04.894Z,102231.44
2023-05-18T13:52:51.790Z,102213.63
2023-05-18T13:55:38.798Z,102206.34
2023-05-18T13:58:29.569Z,102206.63
2023-05-18T14:01:19.801Z,102134.78
2023-05-18T14:04:06.582Z,102210.13
2023-05-18T14:06:56.001Z,102199.28
2023-05-18T14:09:42.665Z,102206.56
2023-05-18T14:12:29.629Z,102196.09
2023-05-18T14:15:20.715Z,102190.31
2023-05-18T14:18:07.980Z,102193.63
2023-05-18T14:20:54.983Z,102187.75
2023-05-18T14:23:43.706Z,102197.44
2023-05-18T14:26:32.671Z,102206.41
2023-05-18T14:29:19.786Z,102207.03
2023-05-18T14:32:12.114Z,102198.88
2023-05-18T14:34:58.945Z,102193.66
2023-05-18T14:37:45.658Z,102204.91
2023-05-18T14:40:32.809Z,102194.56
2023-05-18T14:43:19.730Z,102187.31
2023-05-18T14:46:11.479Z,102187.91
2023-05-18T14:49:02.452Z,102188.00
2023-05-18T14:51:51.628Z,102188.00
2023-05-18T14:54:38.150Z,102184.28
2023-05-18T14:57:27.595Z,102181.00
2023-05-18T15:00:18.526Z,102186.06
2023-05-18T15:03:06.034Z,102191.72
2023-05-18T15:05:58.535Z,102186.69
2023-05-18T15:08:53.610Z,102185.53
2023-05-18T15:11:40.208Z,102188.69
2023-05-18T15:14:27.173Z,102187.31
2023-05-18T15:17:18.063Z,102190.06
2023-05-18T15:20:05.592Z,102178.00
2023-05-18T15:22:56.250Z,102185.31
2023-05-18T15:25:43.124Z,102190.34
2023-05-18T15:28:35.039Z,102182.38
2023-05-18T15:31:23.811Z,102173.88
2023-05-18T15:34:10.806Z,102174.97
2023-05-18T15:36:58.064Z,102163.78
2023-05-18T15:39:45.921Z,102167.31
2023-05-18T15:42:33.833Z,102175.81
2023-05-18T15:45:22.886Z,102174.03
2023-05-18T15:48:09.614Z,102166.91
2023-05-18T15:50:58.905Z,102142.56
2023-05-18T15:53:49.249Z,102162.84
2023-05-18T15:56:37.534Z,102165.16
2023-05-18T15:59:27.100Z,102159.91
2023-05-18T16:02:15.845Z,102166.09
2023-05-18T16:05:02.470Z,102166.03
2023-05-18T16:07:49.305Z,102157.91
2023-05-18T16:10:38.513Z,102168.44
2023-05-18T16:13:28.083Z,102168.66
2023-05-18T16:16:17.497Z,102168.34
2023-05-18T16:19:10.487Z,102160.34
2023-05-18T16:21:57.435Z,102170.34
2023-05-18T16:24:47.252Z,102169.31
2023-05-18T16:27:33.980Z,102170.31
2023-05-18T16:30:24.403Z,102175.00
2023-05-18T16:33:12.147Z,102170.97
2023-05-18T16:36:08.848Z,102169.69
2023-05-18T16:38:58.280Z,102176.06
2023-05-18T16:41:49.071Z,102177.59
2023-05-18T16:44:36.810Z,102167.84
2023-05-18T16:47:33.440Z,102173.94
2023-05-18T16:50:22.432Z,102163.91
2023-05-18T16:53:11.887Z,102165.22
2023-05-18T16:56:06.577Z,102162.38
2023-05-18T16:58:53.923Z,102162.78
2023-05-18T17:01:41.099Z,102164.34
2023-05-18T17:04:32.108Z,102159.41
2023-05-18T17:07:18.969Z,102162.72
2023-05-18T17:10:12.779Z,102160.16
2023-05-18T17:13:02.649Z,102168.78
2023-05-18T17:15:54.985Z,102173.91
2023-05-18T17:18:41.947Z,102167.78
2023-05-18T17:21:32.624Z,102166.34
2023-05-18T17:24:24.055Z,102160.63
2023-05-18T17:27:10.703Z,102162.69
2023-05-18T17:30:00.461Z,102161.06
2023-05-18T17:32:52.466Z,102164.97
2023-05-18T17:35:39.602Z,102165.53
2023-05-18T17:38:30.365Z,102164.97
2023-05-18T17:41:17.069Z,102163.41
2023-05-18T17:44:04.079Z,102159.56
2023-05-18T17:46:53.558Z,102158.06
2023-05-18T17:49:40.734Z,102152.00
2023-05-18T17:52:27.617Z,102153.75
2023-05-18T17:55:16.170Z,102158.31
2023-05-18T17:58:07.377Z,102157.56
2023-05-18T18:00:56.226Z,102151.75
2023-05-18T18:03:43.206Z,102159.88
2023-05-18T18:06:32.478Z,102156.56
2023-05-18T18:09:18.890Z,102159.44
2023-05-18T18:12:12.526Z,102158.59
2023-05-18T18:14:59.147Z,102161.56
2023-05-18T18:17:45.995Z,102162.06
2023-05-18T18:20:36.810Z,102172.09
2023-05-18T18:23:27.883Z,102162.34
2023-05-18T18:26:14.767Z,102172.09
2023-05-18T18:29:03.099Z,102167.06
2023-05-18T18:31:49.664Z,102167.50
2023-05-18T18:34:39.467Z,102170.44
2023-05-18T18:37:38.026Z,102177.13
2023-05-18T18:40:25.129Z,102176.47
2023-05-18T18:43:14.164Z,102182.94
2023-05-18T18:46:07.279Z,102183.16
2023-05-18T18:48:54.264Z,102189.91
2023-05-18T18:51:45.678Z,102189.28
2023-05-18T18:54:34.454Z,102192.97
2023-05-18T18:57:23.262Z,102198.88
2023-05-18T19:00:22.334Z,102192.81
2023-05-18T19:03:18.140Z,102205.44
2023-05-18T19:06:07.453Z,102204.66
2023-05-18T19:08:58.336Z,102212.44
2023-05-18T19:11:45.180Z,102216.91
2023-05-18T19:14:31.771Z,102218.63
2023-05-18T19:17:18.681Z,102221.84
2023-05-18T19:20:13.126Z,102225.16
2023-05-18T19:23:00.024Z,102230.25
2023-05-18T19:25:46.865Z,102239.09
2023-05-18T19:28:36.084Z,102239.03
2023-05-18T19:31:22.669Z,102243.13
2023-05-18T19:34:11.972Z,102249.69
2023-05-18T19:37:03.183Z,102252.34
2023-05-18T19:39:52.128Z,102248.47
2023-05-18T19:42:41.133Z,102257.41
2023-05-18T19:45:28.273Z,102258.06
2023-05-18T19:48:18.442Z,102254.91
2023-05-18T19:51:06.397Z,102260.22
2023-05-18T19:53:59.436Z,102261.94
2023-05-18T19:56:45.981Z,102263.03
2023-05-18T19:59:32.859Z,102258.78
2023-05-18T20:02:22.119Z,102263.06
2023-05-18T20:05:15.470Z,102271.28
2023-05-18T20:08:03.062Z,102269.94
2023-05-18T20:10:54.693Z,102268.97
2023-05-18T20:13:51.358Z,102268.38
2023-05-18T20:16:42.529Z,102271.19
2023-05-18T20:19:31.488Z,102277.38
2023-05-18T20:22:18.722Z,102264.84
2023-05-18T20:25:15.627Z,102279.97
2023-05-18T20:28:08.524Z,102257.53
2023-05-18T20:31:00.606Z,102287.41
2023-05-18T20:33:48.247Z,102284.09
2023-05-18T20:36:40.509Z,102291.09
2023-05-18T20:39:30.217Z,102286.53
2023-05-18T20:42:16.792Z,102292.94
2023-05-18T20:45:07.849Z,102296.63
2023-05-18T20:48:03.188Z,102301.81
2023-05-18T20:50:49.945Z,102299.34
2023-05-18T20:53:36.826Z,102294.25
2023-05-18T20:56:31.116Z,102293.63
2023-05-18T20:59:28.306Z,102288.50
2023-05-18T21:02:27.710Z,102295.41
2023-05-18T21:05:18.971Z,102288.28
2023-05-18T21:08:06.182Z,102283.34
2023-05-18T21:10:53.243Z,102286.91
2023-05-18T21:13:39.966Z,102285.69
2023-05-18T21:16:27.709Z,102299.47
2023-05-18T21:19:19.492Z,102290.66
2023-05-18T21:22:06.319Z,102290.00
2023-05-18T21:24:54.887Z,102290.31
2023-05-18T21:27:41.479Z,102288.66
2023-05-18T21:30:28.312Z,102287.97
2023-05-18T21:33:17.461Z,102291.63
2023-05-18T21:36:09.204Z,102292.78
2023-05-18T21:38:56.343Z,102300.13
2023-05-18T21:41:45.318Z,102292.97
2023-05-18T21:44:35.307Z,102294.00
2023-05-18T21:47:24.272Z,102294.94
2023-05-18T21:50:16.561Z,102300.31
2023-05-18T21:53:09.530Z,102296.78
2023-05-18T21:56:01.647Z,102295.09
2023-05-18T21:58:48.059Z,102294.97
2023-05-18T22:01:35.163Z,102290.63
2023-05-18T22:04:22.312Z,102285.47
2023-05-18T22:07:09.909Z,102289.31
2023-05-18T22:09:58.118Z,102287.31
2023-05-18T22:12:45.077Z,102291.09
2023-05-18T22:15:32.894Z,102292.16
2023-05-18T22:18:19.651Z,102293.25
2023-05-18T22:21:06.670Z,102283.56
2023-05-18T22:23:54.535Z,102288.09
2023-05-18T22:26:44.818Z,102290.78
2023-05-18T22:29:31.418Z,102293.34
2023-05-18T22:32:21.093Z,102289.84
2023-05-18T22:35:10.740Z,102293.50
2023-05-18T22:37:59.595Z,102287.50
2023-05-18T22:40:46.506Z,102290.13
2023-05-18T22:43:34.617Z,102293.84
2023-05-18T22:46:21.558Z,102290.38
2023-05-18T22:49:08.411Z,102290.59
2023-05-18T22:51:54.893Z,102293.38
2023-05-18T22:54:41.732Z,102288.13
2023-05-18T22:57:28.594Z,102291.72
2023-05-18T23:00:17.390Z,102290.00
2023-05-18T23:03:04.137Z,102288.22
2023-05-18T23:05:50.999Z,102285.59
2023-05-18T23:08:37.824Z,102290.97
2023-05-18T23:11:25.607Z,102293.66
2023-05-18T23:14:12.193Z,102283.13
2023-05-18T23:17:00.408Z,102284.84
2023-05-18T23:19:48.434Z,102288.47
2023-05-18T23:22:35.840Z,102279.72
2023-05-18T23:25:22.847Z,102283.28
2023-05-18T23:28:09.273Z,102289.47
2023-05-18T23:30:56.122Z,102288.63
2023-05-18T23:33:45.261Z,102284.25
2023-05-18T23:36:35.097Z,102273.63
2023-05-18T23:39:23.239Z,102282.44
2023-05-18T23:42:10.901Z,102282.53
2023-05-18T23:44:57.989Z,102278.13
2023-05-18T23:47:46.325Z,102259.69
2023-05-18T23:50:34.913Z,102267.59
2023-05-18T23:53:23.436Z,102269.38
2023-05-18T23:56:12.397Z,102266.81
2023-05-18T23:59:01.640Z,102274.69
